Singers Glen, VA (22850)

7:26 AM EST on March 03, 2015 (GMT -0500)
Singers Glen FD | Change Station
CLOSE
Current Station
Personal Weather Station
Location: Harrisonburg, VA
Elevation: 1621 ft
Nearby Weather Stations
Active Advisory: Winter Weather Advisory

Elev 1621 ft 38.55 °N, 78.92 °W | Updated 14 seconds ago

Overcast
Overcast
25.9 °F
Feels Like 26 °F
N
0.9
Wind Variable Wind from WSW
Gusts 2.0 mph

Today
High -- | Low -- °F
--% Chance of Precip.
Yesterday
High -- | Low -- °F
Precip. -- in
6:45 AM 6:10 PM
Waxing Gibbous, 96% visible
Pressure 30.36 in
Visibility 10.0 miles
Clouds Overcast 11000 ft
Windchill 26 °F
Dew Point 19 °F
Humidity 76%
Rainfall 0.00 in
Snow Depth Not available.
UV 0 out of 12
Pollen .90 out of 12
Air Quality Not available.
Flu Activity Not available.
METAR KSHD 031215Z AUTO 16006KT 10SM OVC110 M01/M08 A3036 RMK AO2 T10101083

More Conditions Fewer Conditions

Pressure 30.36 in
Visibility 10.0 miles
Clouds Overcast 11000 ft
Windchill 26 °F
Dew Point 19 °F
Humidity 76%
Rainfall 0.00 in
Snow Depth Not available.
UV 0 out of 12
Pollen .90 out of 12
Air Quality Not available.
Flu Activity Not available.
METAR KSHD 031215Z AUTO 16006KT 10SM OVC110 M01/M08 A3036 RMK AO2 T10101083

More Conditions Fewer Conditions

10-Day Weather Forecast

Almanac

Astronomy

Mar. 03, 2015 Rise Set
Actual Time
Civil Twilight
Nautical Twilight
Astronomical Twilight
Moon
Length of Visible Light
Length of Day
Tomorrow will be .
, % of the Moon is Illuminated

Today's Extremes

State Highs State Lows

Community

WunderPhotos

Upload Photos

1,802,095 photos uploaded!

WunderBlogs® & News

Nearby

Air Quality

  Air Quality AQ Index Pollutant
Not available.

Snow Depth

Station Depth Elevation

Earthquake Activity

City Distance Mag. Time & Date
Minimum magnitude displayed is 2.5.

Coastal Water Temperatures

Place Temperature

Nearby Weather Stations

Winter Weather Advisory
Statement as of 4:54 AM EST on March 03, 2015

... Winter Weather Advisory remains in effect from 10 am this
morning to 7 PM EST this evening...

* locations... Shenandoah Valley and north-central Virginia Blue
Ridge and foothills.

* Hazard types... a wintry mix of snow... sleet and freezing rain.

* Accumulations... snow and sleet accumulation of up to half
inch... along with less than a tenth inch ice.

* Timing... late this morning into the early evening.

* Impacts... roads may be snow and ice covered. Traveling will be
dangerous.

* Winds... south 5 to 15 mph with gusts up to 25 mph.

* Temperatures... in the upper 20s... rising into the 30s.

Precautionary/preparedness actions...

A Winter Weather Advisory means that periods of snow... sleet... or
freezing rain will cause travel difficulties. Be prepared for
slippery roads and limited visibilities... and use caution while
driving.